Time,TemperatureF,DewpointF,PressureIn,WindDirection,WindDirectionDegrees,WindSpeedMPH,WindSpeedGustMPH,Humidity,HourlyPrecipIn,Conditions,Clouds,dailyrainin,SoftwareType,DateUTC
2013-04-06 00:04:00,59.0,-5.0,29.77,SW,219,0.0,0.0,7,0.00,,---,0.00,VWS V14.01,2013-04-06 07:04:00,
2013-04-06 00:10:00,59.2,-4.9,29.77,SW,215,0.0,0.0,7,0.00,,---,0.00,VWS V14.01,2013-04-06 07:10:00,
2013-04-06 00:15:00,59.2,-4.9,29.77,SW,220,0.0,0.0,7,0.00,,---,0.00,VWS V14.01,2013-04-06 07:15:00,
2013-04-06 00:20:00,59.7,-4.5,29.77,SW,214,0.0,0.0,7,0.00,,---,0.00,VWS V14.01,2013-04-06 07:20:00,
2013-04-06 00:25:00,59.2,-4.9,29.77,SSW,211,0.0,0.0,7,0.00,,---,0.00,VWS V14.01,2013-04-06 07:25:00,
2013-04-06 00:32:00,58.5,-5.4,29.77,SSW,212,0.0,0.0,7,0.00,,---,0.00,VWS V14.01,2013-04-06 07:32:00,
2013-04-06 00:37:00,58.5,-5.4,29.77,SSW,212,0.0,0.0,7,0.00,,---,0.00,VWS V14.01,2013-04-06 07:37:00,
2013-04-06 00:42:00,57.2,-6.3,29.77,SW,216,0.0,0.0,7,0.00,,---,0.00,VWS V14.01,2013-04-06 07:42:00,
2013-04-06 00:47:00,57.2,-6.3,29.77,SW,220,4.0,4.0,7,0.00,,---,0.00,VWS V14.01,2013-04-06 07:47:00,
2013-04-06 00:52:00,58.1,-5.7,29.77,SSW,204,2.7,3.6,7,0.00,,---,0.00,VWS V14.01,2013-04-06 07:52:00,
2013-04-06 00:57:00,58.3,-5.6,29.77,SSW,203,0.0,0.0,7,0.00,,---,0.00,VWS V14.01,2013-04-06 07:57:00,
2013-04-06 01:03:00,58.3,-5.6,29.77,SSW,202,0.0,0.0,7,0.00,,---,0.00,VWS V14.01,2013-04-06 08:03:00,
2013-04-06 01:08:00,58.3,-5.6,29.77,SSW,202,0.0,0.0,7,0.00,,---,0.00,VWS V14.01,2013-04-06 08:08:00,
2013-04-06 01:13:00,57.2,-6.3,29.77,WNW,302,0.0,0.0,7,0.00,,---,0.00,VWS V14.01,2013-04-06 08:13:00,
2013-04-06 01:18:00,57.0,-6.5,29.77,West,279,0.0,0.0,7,0.00,,---,0.00,VWS V14.01,2013-04-06 08:18:00,
2013-04-06 01:23:00,56.3,-7.0,29.77,West,279,0.0,0.0,7,0.00,,---,0.00,VWS V14.01,2013-04-06 08:23:00,
2013-04-06 01:28:00,56.1,-7.2,29.77,West,279,0.0,0.0,7,0.00,,---,0.00,VWS V14.01,2013-04-06 08:28:00,
2013-04-06 01:33:00,55.9,-7.3,29.77,West,279,0.0,0.0,7,0.00,,---,0.00,VWS V14.01,2013-04-06 08:33:00,
2013-04-06 01:38:00,55.6,-7.6,29.77,West,279,0.0,0.0,7,0.00,,---,0.00,VWS V14.01,2013-04-06 08:38:00,
2013-04-06 01:44:00,55.2,-5.1,29.77,West,279,0.0,0.0,8,0.00,,---,0.00,VWS V14.01,2013-04-06 08:44:00,
2013-04-06 01:49:00,54.3,-5.8,29.77,West,280,0.0,0.0,8,0.00,,---,0.00,VWS V14.01,2013-04-06 08:49:00,
2013-04-06 01:54:00,54.0,-6.0,29.77,West,280,0.0,0.0,8,0.00,,---,0.00,VWS V14.01,2013-04-06 08:54:00,
2013-04-06 02:00:00,53.8,-6.2,29.77,West,280,0.0,0.0,8,0.00,,---,0.00,VWS V14.01,2013-04-06 09:00:00,
2013-04-06 02:05:00,53.8,-6.2,29.77,West,280,0.0,0.0,8,0.00,,---,0.00,VWS V14.01,2013-04-06 09:05:00,
2013-04-06 02:10:00,53.8,-6.2,29.77,West,280,0.0,0.0,8,0.00,,---,0.00,VWS V14.01,2013-04-06 09:10:00,
2013-04-06 02:15:00,53.8,-6.2,29.77,West,280,0.0,0.0,8,0.00,,---,0.00,VWS V14.01,2013-04-06 09:15:00,
2013-04-06 02:20:00,53.8,-6.2,29.77,West,280,0.0,0.0,8,0.00,,---,0.00,VWS V14.01,2013-04-06 09:20:00,
2013-04-06 02:25:00,53.8,-6.2,29.77,SSW,213,0.0,0.0,8,0.00,,---,0.00,VWS V14.01,2013-04-06 09:25:00,
2013-04-06 02:30:00,54.0,-6.0,29.77,SW,216,0.0,0.0,8,0.00,,---,0.00,VWS V14.01,2013-04-06 09:30:00,
2013-04-06 02:35:00,53.6,-6.3,29.77,SW,216,4.0,4.0,8,0.00,,---,0.00,VWS V14.01,2013-04-06 09:35:00,
2013-04-06 02:40:00,53.4,-6.4,29.77,SW,217,5.8,5.8,8,0.00,,---,0.00,VWS V14.01,2013-04-06 09:40:00,
2013-04-06 02:46:00,53.6,-6.3,29.77,SSW,209,5.4,5.8,8,0.00,,---,0.00,VWS V14.01,2013-04-06 09:46:00,
2013-04-06 02:51:00,54.0,-6.0,29.77,SSW,212,3.1,4.0,8,0.00,,---,0.00,VWS V14.01,2013-04-06 09:51:00,
2013-04-06 02:56:00,54.0,-6.0,29.77,SSW,212,0.0,0.0,8,0.00,,---,0.00,VWS V14.01,2013-04-06 09:56:00,
2013-04-06 03:02:00,53.4,-6.4,29.77,SSW,212,0.0,0.0,8,0.00,,---,0.00,VWS V14.01,2013-04-06 10:02:00,
2013-04-06 03:07:00,53.1,-6.7,29.77,SSW,209,0.0,0.0,8,0.00,,---,0.00,VWS V14.01,2013-04-06 10:07:00,
2013-04-06 03:12:00,52.7,-7.0,29.77,SSW,209,0.0,0.0,8,0.00,,---,0.00,VWS V14.01,2013-04-06 10:12:00,
2013-04-06 03:17:00,52.9,-6.8,29.77,WSW,246,0.0,0.0,8,0.00,,---,0.00,VWS V14.01,2013-04-06 10:17:00,
2013-04-06 03:22:00,52.9,-6.8,29.77,WSW,246,0.0,0.0,8,0.00,,---,0.00,VWS V14.01,2013-04-06 10:22:00,
2013-04-06 03:27:00,52.9,-6.8,29.77,WSW,246,0.0,0.0,8,0.00,,---,0.00,VWS V14.01,2013-04-06 10:27:00,
2013-04-06 03:32:00,52.9,-6.8,29.77,WSW,246,0.0,0.0,8,0.00,,---,0.00,VWS V14.01,2013-04-06 10:32:00,
2013-04-06 03:38:00,52.5,-7.1,29.74,WSW,246,0.0,0.0,8,0.00,,---,0.00,VWS V14.01,2013-04-06 10:38:00,
2013-04-06 03:43:00,52.5,-7.1,29.74,WSW,246,0.0,0.0,8,0.00,,---,0.00,VWS V14.01,2013-04-06 10:43:00,
2013-04-06 03:48:00,51.6,-5.4,29.74,WSW,246,0.0,0.0,9,0.00,,---,0.00,VWS V14.01,2013-04-06 10:48:00,
2013-04-06 03:53:00,51.3,-5.6,29.74,WSW,246,0.0,0.0,9,0.00,,---,0.00,VWS V14.01,2013-04-06 10:53:00,
2013-04-06 03:58:00,51.1,-5.8,29.74,WSW,245,0.0,0.0,9,0.00,,---,0.00,VWS V14.01,2013-04-06 10:58:00,
2013-04-06 04:04:00,51.3,-5.6,29.74,WSW,245,0.0,0.0,9,0.00,,---,0.00,VWS V14.01,2013-04-06 11:04:00,
2013-04-06 04:09:00,51.3,-5.6,29.74,WSW,246,0.0,0.0,9,0.00,,---,0.00,VWS V14.01,2013-04-06 11:09:00,
2013-04-06 04:14:00,51.1,-5.8,29.74,WSW,246,0.0,0.0,9,0.00,,---,0.00,VWS V14.01,2013-04-06 11:14:00,
2013-04-06 04:20:00,50.7,-6.1,29.74,WSW,246,0.0,0.0,9,0.00,,---,0.00,VWS V14.01,2013-04-06 11:20:00,
2013-04-06 04:25:00,50.2,-6.5,29.77,WSW,246,0.0,0.0,9,0.00,,---,0.00,VWS V14.01,2013-04-06 11:25:00,
2013-04-06 04:31:00,50.2,-6.5,29.77,WSW,244,0.0,0.0,9,0.00,,---,0.00,VWS V14.01,2013-04-06 11:31:00,
2013-04-06 04:33:00,49.5,-7.0,29.77,WSW,244,0.0,0.0,9,0.00,,---,0.00,VWS V14.01,2013-04-06 11:33:00,
2013-04-06 04:38:00,49.1,-7.3,29.77,SW,233,0.0,0.0,9,0.00,,---,0.00,VWS V14.01,2013-04-06 11:38:00,
2013-04-06 04:43:00,49.6,-6.9,29.77,SW,234,0.0,0.0,9,0.00,,---,0.00,VWS V14.01,2013-04-06 11:43:00,
2013-04-06 04:49:00,50.0,-6.6,29.77,SW,230,0.0,0.0,9,0.00,,---,0.00,VWS V14.01,2013-04-06 11:49:00,
2013-04-06 04:54:00,50.0,-6.6,29.77,WSW,245,0.0,0.0,9,0.00,,---,0.00,VWS V14.01,2013-04-06 11:54:00,
2013-04-06 04:59:00,50.0,-6.6,29.77,WSW,241,0.0,0.0,9,0.00,,---,0.00,VWS V14.01,2013-04-06 11:59:00,
2013-04-06 05:04:00,50.5,-6.2,29.77,SW,219,0.0,0.0,9,0.00,,---,0.00,VWS V14.01,2013-04-06 12:04:00,
2013-04-06 05:10:00,51.1,-5.8,29.77,SW,219,0.0,0.0,9,0.00,,---,0.00,VWS V14.01,2013-04-06 12:10:00,
2013-04-06 05:15:00,51.4,-5.5,29.77,SW,220,0.0,0.0,9,0.00,,---,0.00,VWS V14.01,2013-04-06 12:15:00,
2013-04-06 05:20:00,51.4,-5.5,29.77,SW,220,0.0,0.0,9,0.00,,---,0.00,VWS V14.01,2013-04-06 12:20:00,
2013-04-06 05:26:00,51.3,-5.6,29.77,SSW,211,0.0,0.0,9,0.00,,---,0.00,VWS V14.01,2013-04-06 12:26:00,
2013-04-06 05:31:00,50.9,-5.9,29.77,SSW,210,0.0,0.0,9,0.00,,---,0.00,VWS V14.01,2013-04-06 12:31:00,
2013-04-06 05:36:00,50.4,-6.3,29.77,SSW,209,0.0,0.0,9,0.00,,---,0.00,VWS V14.01,2013-04-06 12:36:00,
2013-04-06 05:41:00,50.4,-6.3,29.77,SSW,213,0.0,0.0,9,0.00,,---,0.00,VWS V14.01,2013-04-06 12:41:00,
2013-04-06 05:46:00,50.7,-6.1,29.77,SSW,209,0.0,0.0,9,0.00,,---,0.00,VWS V14.01,2013-04-06 12:46:00,
2013-04-06 05:51:00,50.9,-5.9,29.77,SSW,208,0.0,0.0,9,0.00,,---,0.00,VWS V14.01,2013-04-06 12:51:00,
2013-04-06 05:56:00,49.8,-6.7,29.77,SSW,208,0.0,0.0,9,0.00,,---,0.00,VWS V14.01,2013-04-06 12:56:00,
2013-04-06 06:02:00,49.5,-7.0,29.80,SSW,208,0.0,0.0,9,0.00,,---,0.00,VWS V14.01,2013-04-06 13:02:00,
2013-04-06 06:07:00,49.3,-7.2,29.80,SSW,208,0.0,0.0,9,0.00,,---,0.00,VWS V14.01,2013-04-06 13:07:00,
2013-04-06 06:12:00,48.9,-7.4,29.80,SSW,208,0.0,0.0,9,0.00,,---,0.00,VWS V14.01,2013-04-06 13:12:00,
2013-04-06 06:17:00,48.9,-7.4,29.80,SSW,208,0.0,0.0,9,0.00,,---,0.00,VWS V14.01,2013-04-06 13:17:00,
2013-04-06 06:22:00,48.6,-7.7,29.80,SSW,208,0.0,0.0,9,0.00,,---,0.00,VWS V14.01,2013-04-06 13:22:00,
2013-04-06 06:27:00,48.2,-8.0,29.80,SSW,208,0.0,0.0,9,0.00,,---,0.00,VWS V14.01,2013-04-06 13:27:00,
2013-04-06 06:33:00,48.2,-8.0,29.80,SSW,208,0.0,0.0,9,0.00,,---,0.00,VWS V14.01,2013-04-06 13:33:00,
2013-04-06 06:38:00,48.9,-7.4,29.80,SSW,208,0.0,0.0,9,0.00,,---,0.00,VWS V14.01,2013-04-06 13:38:00,
2013-04-06 06:43:00,49.6,-6.9,29.80,SSW,209,0.0,0.0,9,0.00,,---,0.00,VWS V14.01,2013-04-06 13:43:00,
2013-04-06 06:48:00,49.8,-6.7,29.80,SSW,209,0.0,0.0,9,0.00,,---,0.00,VWS V14.01,2013-04-06 13:48:00,
2013-04-06 06:53:00,50.7,-6.1,29.80,SSW,209,0.0,0.0,9,0.00,,---,0.00,VWS V14.01,2013-04-06 13:53:00,
2013-04-06 06:58:00,52.0,-7.5,29.80,SSW,209,0.0,0.0,8,0.00,,---,0.00,VWS V14.01,2013-04-06 13:58:00,
2013-04-06 07:03:00,52.9,-6.8,29.80,SSW,209,0.0,0.0,8,0.00,,---,0.00,VWS V14.01,2013-04-06 14:03:00,
2013-04-06 07:09:00,53.8,-6.2,29.80,SSW,209,0.0,0.0,8,0.00,,---,0.00,VWS V14.01,2013-04-06 14:09:00,
2013-04-06 07:14:00,53.8,-6.2,29.80,SSW,209,0.0,0.0,8,0.00,,---,0.00,VWS V14.01,2013-04-06 14:14:00,
2013-04-06 07:19:00,55.4,-7.7,29.80,WNW,287,0.0,0.0,7,0.00,,---,0.00,VWS V14.01,2013-04-06 14:19:00,
2013-04-06 07:25:00,56.3,-7.0,29.80,NNW,337,0.0,0.0,7,0.00,,---,0.00,VWS V14.01,2013-04-06 14:25:00,
2013-04-06 07:30:00,56.7,-6.8,29.80,NNW,337,0.0,0.0,7,0.00,,---,0.00,VWS V14.01,2013-04-06 14:30:00,
2013-04-06 07:35:00,56.8,-6.6,29.80,NW,321,0.0,0.0,7,0.00,,---,0.00,VWS V14.01,2013-04-06 14:35:00,
2013-04-06 07:40:00,57.6,-6.1,29.80,NW,307,0.0,0.0,7,0.00,,---,0.00,VWS V14.01,2013-04-06 14:40:00,
2013-04-06 07:45:00,57.9,-5.8,29.80,NW,308,0.0,0.0,7,0.00,,---,0.00,VWS V14.01,2013-04-06 14:45:00,
2013-04-06 07:50:00,58.3,-5.6,29.80,NW,304,0.0,0.0,7,0.00,,---,0.00,VWS V14.01,2013-04-06 14:50:00,
2013-04-06 07:55:00,58.5,-5.4,29.80,NW,306,0.0,0.0,7,0.00,,---,0.00,VWS V14.01,2013-04-06 14:55:00,
2013-04-06 08:00:00,58.8,-5.2,29.83,NNW,327,0.0,0.0,7,0.00,,---,0.00,VWS V14.01,2013-04-06 15:00:00,
2013-04-06 08:05:00,58.8,-5.2,29.83,NNW,328,5.8,5.8,7,0.00,,---,0.00,VWS V14.01,2013-04-06 15:05:00,
2013-04-06 08:10:00,59.4,-4.8,29.83,North,3,0.0,0.0,7,0.00,,---,0.00,VWS V14.01,2013-04-06 15:10:00,
2013-04-06 08:16:00,59.7,-4.5,29.83,NNW,332,0.0,0.0,7,0.00,,---,0.00,VWS V14.01,2013-04-06 15:16:00,
2013-04-06 08:21:00,59.9,-4.3,29.83,NNW,331,0.0,0.0,7,0.00,,---,0.00,VWS V14.01,2013-04-06 15:21:00,
2013-04-06 08:26:00,60.3,-4.1,29.83,WNW,303,0.0,0.0,7,0.00,,---,0.00,VWS V14.01,2013-04-06 15:26:00,
2013-04-06 08:32:00,60.6,-3.8,29.83,WNW,291,0.0,0.0,7,0.00,,---,0.00,VWS V14.01,2013-04-06 15:32:00,
2013-04-06 08:37:00,61.0,-6.7,29.83,North,10,0.0,0.0,6,0.00,,---,0.00,VWS V14.01,2013-04-06 15:37:00,
2013-04-06 08:42:00,61.7,-6.2,29.83,WNW,303,0.0,0.0,6,0.00,,---,0.00,VWS V14.01,2013-04-06 15:42:00,
2013-04-06 08:47:00,62.1,-6.0,29.83,NW,319,0.0,0.0,6,0.00,,---,0.00,VWS V14.01,2013-04-06 15:47:00,
2013-04-06 08:53:00,62.4,-5.7,29.83,NNW,331,0.0,0.0,6,0.00,,---,0.00,VWS V14.01,2013-04-06 15:53:00,
2013-04-06 08:58:00,63.0,-5.3,29.83,NNW,330,0.0,0.0,6,0.00,,---,0.00,VWS V14.01,2013-04-06 15:58:00,
2013-04-06 09:03:00,63.5,-4.9,29.83,NNW,328,0.0,0.0,6,0.00,,---,0.00,VWS V14.01,2013-04-06 16:03:00,
2013-04-06 09:08:00,63.9,-4.7,29.83,NNW,329,0.0,0.0,6,0.00,,---,0.00,VWS V14.01,2013-04-06 16:08:00,
2013-04-06 09:13:00,64.2,-4.4,29.83,NE,52,3.6,3.6,6,0.00,,---,0.00,VWS V14.01,2013-04-06 16:13:00,
2013-04-06 09:19:00,64.8,-7.8,29.83,WNW,284,0.0,0.0,5,0.00,,---,0.00,VWS V14.01,2013-04-06 16:19:00,
2013-04-06 09:24:00,64.9,-7.6,29.83,NNW,346,0.0,0.0,5,0.00,,---,0.00,VWS V14.01,2013-04-06 16:24:00,
2013-04-06 09:29:00,65.1,-7.5,29.83,East,98,0.0,0.0,5,0.00,,---,0.00,VWS V14.01,2013-04-06 16:29:00,
2013-04-06 09:34:00,66.2,-6.7,29.83,North,0,0.0,0.0,5,0.00,,---,0.00,VWS V14.01,2013-04-06 16:34:00,
2013-04-06 09:40:00,66.2,-6.7,29.83,NNE,23,0.0,0.0,5,0.00,,---,0.00,VWS V14.01,2013-04-06 16:40:00,
2013-04-06 09:45:00,66.9,-6.2,29.83,North,357,0.0,0.0,5,0.00,,---,0.00,VWS V14.01,2013-04-06 16:45:00,
2013-04-06 09:50:00,66.9,-6.2,29.83,ENE,64,0.0,0.0,5,0.00,,---,0.00,VWS V14.01,2013-04-06 16:50:00,
2013-04-06 09:55:00,67.1,-6.1,29.83,NNE,28,0.0,3.6,5,0.00,,---,0.00,VWS V14.01,2013-04-06 16:55:00,
2013-04-06 10:00:00,67.6,-5.7,29.83,NE,34,0.0,0.0,5,0.00,,---,0.00,VWS V14.01,2013-04-06 17:00:00,
2013-04-06 10:05:00,67.6,-5.7,29.83,ENE,59,4.9,4.9,5,0.00,,---,0.00,VWS V14.01,2013-04-06 17:05:00,
2013-04-06 10:10:00,68.2,-5.3,29.83,NE,41,0.0,0.0,5,0.00,,---,0.00,VWS V14.01,2013-04-06 17:10:00,
2013-04-06 10:16:00,68.2,-5.3,29.83,NNE,14,0.0,5.4,5,0.00,,---,0.00,VWS V14.01,2013-04-06 17:16:00,
2013-04-06 10:21:00,69.1,-4.7,29.83,North,0,0.0,0.0,5,0.00,,---,0.00,VWS V14.01,2013-04-06 17:21:00,
2013-04-06 10:27:00,69.4,-4.4,29.83,NNE,25,5.8,5.8,5,0.00,,---,0.00,VWS V14.01,2013-04-06 17:27:00,
2013-04-06 10:32:00,69.4,-4.4,29.83,NNE,14,0.0,0.0,5,0.00,,---,0.00,VWS V14.01,2013-04-06 17:32:00,
2013-04-06 10:37:00,70.2,-8.5,29.83,NNE,25,3.1,3.1,4,0.00,,---,0.00,VWS V14.01,2013-04-06 17:37:00,
2013-04-06 10:42:00,70.3,-8.4,29.80,ENE,70,4.0,6.3,4,0.00,,---,0.00,VWS V14.01,2013-04-06 17:42:00,
2013-04-06 10:47:00,70.5,-8.3,29.80,ESE,104,0.0,5.4,4,0.00,,---,0.00,VWS V14.01,2013-04-06 17:47:00,
2013-04-06 10:52:00,70.7,-8.1,29.80,NNE,21,0.0,0.0,4,0.00,,---,0.00,VWS V14.01,2013-04-06 17:52:00,
2013-04-06 10:57:00,71.1,-7.9,29.80,East,96,0.0,0.0,4,0.00,,---,0.00,VWS V14.01,2013-04-06 17:57:00,
2013-04-06 11:03:00,71.2,-7.8,29.80,North,357,2.7,3.6,4,0.00,,---,0.00,VWS V14.01,2013-04-06 18:03:00,
2013-04-06 11:08:00,71.2,-7.8,29.80,East,87,0.0,0.0,4,0.00,,---,0.00,VWS V14.01,2013-04-06 18:08:00,
2013-04-06 11:13:00,71.2,-7.8,29.80,East,95,3.6,5.8,4,0.00,,---,0.00,VWS V14.01,2013-04-06 18:13:00,
2013-04-06 11:18:00,73.0,-6.5,29.80,East,89,6.3,6.3,4,0.00,,---,0.00,VWS V14.01,2013-04-06 18:18:00,
2013-04-06 11:23:00,73.0,-6.5,29.80,NNE,22,7.6,7.6,4,0.00,,---,0.00,VWS V14.01,2013-04-06 18:23:00,
2013-04-06 11:29:00,73.0,-6.5,29.80,NE,42,0.0,3.1,4,0.00,,---,0.00,VWS V14.01,2013-04-06 18:29:00,
2013-04-06 11:34:00,72.5,-6.9,29.80,East,82,5.4,5.4,4,0.00,,---,0.00,VWS V14.01,2013-04-06 18:34:00,
2013-04-06 11:39:00,73.6,-12.0,29.80,NE,37,5.4,5.4,3,0.00,,---,0.00,VWS V14.01,2013-04-06 18:39:00,
2013-04-06 11:44:00,73.6,-12.0,29.77,NE,49,2.7,2.7,3,0.00,,---,0.00,VWS V14.01,2013-04-06 18:44:00,
2013-04-06 11:50:00,73.8,-11.9,29.77,NE,45,2.7,4.9,3,0.00,,---,0.00,VWS V14.01,2013-04-06 18:50:00,
2013-04-06 11:55:00,74.5,-11.4,29.77,ENE,57,8.1,8.1,3,0.00,,---,0.00,VWS V14.01,2013-04-06 18:55:00,
2013-04-06 12:00:00,75.0,-11.0,29.77,NNE,28,5.8,7.6,3,0.00,,---,0.00,VWS V14.01,2013-04-06 19:00:00,
2013-04-06 12:05:00,74.8,-11.1,29.77,East,96,0.0,0.0,3,0.00,,---,0.00,VWS V14.01,2013-04-06 19:05:00,
2013-04-06 12:11:00,74.8,-11.1,29.77,NE,35,0.0,2.7,3,0.00,,---,0.00,VWS V14.01,2013-04-06 19:11:00,
2013-04-06 12:16:00,74.8,-11.1,29.77,North,350,0.0,0.0,3,0.00,,---,0.00,VWS V14.01,2013-04-06 19:16:00,
2013-04-06 12:21:00,75.4,-10.8,29.77,NNE,17,0.0,0.0,3,0.00,,---,0.00,VWS V14.01,2013-04-06 19:21:00,
2013-04-06 12:27:00,76.3,-10.2,29.77,ESE,108,6.3,6.3,3,0.00,,---,0.00,VWS V14.01,2013-04-06 19:27:00,
2013-04-06 12:32:00,76.3,-10.2,29.77,NNE,29,5.8,5.8,3,0.00,,---,0.00,VWS V14.01,2013-04-06 19:32:00,
2013-04-06 12:37:00,76.5,-10.0,29.77,North,3,4.0,5.8,3,0.00,,---,0.00,VWS V14.01,2013-04-06 19:37:00,
2013-04-06 12:42:00,77.4,-9.4,29.77,NE,56,4.0,4.0,3,0.00,,---,0.00,VWS V14.01,2013-04-06 19:42:00,
2013-04-06 12:47:00,77.7,-9.2,29.77,NE,41,5.8,5.8,3,0.00,,---,0.00,VWS V14.01,2013-04-06 19:47:00,
2013-04-06 12:53:00,77.4,-9.4,29.77,NE,36,4.9,4.9,3,0.00,,---,0.00,VWS V14.01,2013-04-06 19:53:00,
2013-04-06 12:58:00,77.5,-9.3,29.74,NE,49,0.0,0.0,3,0.00,,---,0.00,VWS V14.01,2013-04-06 19:58:00,
2013-04-06 13:04:00,77.7,-9.2,29.74,East,88,3.1,4.0,3,0.00,,---,0.00,VWS V14.01,2013-04-06 20:04:00,
2013-04-06 13:09:00,77.4,-9.4,29.74,NE,55,5.4,6.7,3,0.00,,---,0.00,VWS V14.01,2013-04-06 20:09:00,
2013-04-06 13:14:00,78.1,-9.0,29.74,East,80,7.6,7.6,3,0.00,,---,0.00,VWS V14.01,2013-04-06 20:14:00,
2013-04-06 13:19:00,78.4,-8.7,29.74,East,92,4.0,5.4,3,0.00,,---,0.00,VWS V14.01,2013-04-06 20:19:00,
2013-04-06 13:25:00,78.8,-16.6,29.74,East,84,5.4,6.7,2,0.00,,---,0.00,VWS V14.01,2013-04-06 20:25:00,
2013-04-06 13:30:00,79.0,-16.5,29.71,North,11,6.3,6.3,2,0.00,,---,0.00,VWS V14.01,2013-04-06 20:30:00,
2013-04-06 13:35:00,78.6,-8.6,29.71,ENE,69,5.4,11.0,3,0.00,,---,0.00,VWS V14.01,2013-04-06 20:35:00,
2013-04-06 13:40:00,79.3,-16.2,29.71,ENE,75,10.5,10.5,2,0.00,,---,0.00,VWS V14.01,2013-04-06 20:40:00,
2013-04-06 13:45:00,79.5,-16.1,29.71,ESE,108,12.8,12.8,2,0.00,,---,0.00,VWS V14.01,2013-04-06 20:45:00,
2013-04-06 13:51:00,80.1,-15.8,29.71,ENE,77,5.8,10.1,2,0.00,,---,0.00,VWS V14.01,2013-04-06 20:51:00,
2013-04-06 13:56:00,80.1,-15.8,29.71,ENE,69,6.3,6.3,2,0.00,,---,0.00,VWS V14.01,2013-04-06 20:56:00,
2013-04-06 14:02:00,80.4,-15.5,29.71,ENE,61,8.1,10.1,2,0.00,,---,0.00,VWS V14.01,2013-04-06 21:02:00,
2013-04-06 14:07:00,80.6,-15.4,29.71,WSW,251,7.6,7.6,2,0.00,,---,0.00,VWS V14.01,2013-04-06 21:07:00,
2013-04-06 14:12:00,80.1,-15.8,29.71,South,179,5.8,10.1,2,0.00,,---,0.00,VWS V14.01,2013-04-06 21:12:00,
2013-04-06 14:17:00,80.8,-15.3,29.71,ESE,117,9.2,12.3,2,0.00,,---,0.00,VWS V14.01,2013-04-06 21:17:00,
2013-04-06 14:22:00,80.8,-15.3,29.71,ESE,123,8.3,8.3,2,0.00,,---,0.00,VWS V14.01,2013-04-06 21:22:00,
2013-04-06 14:28:00,80.4,-15.5,29.71,SSE,147,7.6,10.1,2,0.00,,---,0.00,VWS V14.01,2013-04-06 21:28:00,
2013-04-06 14:33:00,80.2,-15.6,29.71,ESE,121,7.6,13.6,2,0.00,,---,0.00,VWS V14.01,2013-04-06 21:33:00,
2013-04-06 14:38:00,79.3,-16.2,29.68,ESE,111,8.3,10.5,2,0.00,,---,0.00,VWS V14.01,2013-04-06 21:38:00,
2013-04-06 14:44:00,79.3,-16.2,29.68,SE,124,12.8,12.8,2,0.00,,---,0.00,VWS V14.01,2013-04-06 21:44:00,
2013-04-06 14:49:00,78.1,-9.0,29.68,SE,131,8.3,11.4,3,0.00,,---,0.00,VWS V14.01,2013-04-06 21:49:00,
2013-04-06 14:54:00,78.4,-8.7,29.68,SE,128,10.5,10.5,3,0.00,,---,0.00,VWS V14.01,2013-04-06 21:54:00,
2013-04-06 14:59:00,77.7,-9.2,29.68,ESE,109,12.3,12.3,3,0.00,,---,0.00,VWS V14.01,2013-04-06 21:59:00,
2013-04-06 15:05:00,77.5,-9.3,29.68,ESE,115,12.3,17.4,3,0.00,,---,0.00,VWS V14.01,2013-04-06 22:05:00,
2013-04-06 15:10:00,77.7,-9.2,29.68,ESE,114,8.3,8.3,3,0.00,,---,0.00,VWS V14.01,2013-04-06 22:10:00,
2013-04-06 15:15:00,78.8,-16.6,29.68,SE,142,10.5,10.5,2,0.00,,---,0.00,VWS V14.01,2013-04-06 22:15:00,
2013-04-06 15:20:00,79.5,-16.1,29.68,SSE,163,8.1,13.2,2,0.00,,---,0.00,VWS V14.01,2013-04-06 22:20:00,
2013-04-06 15:25:00,79.7,-16.0,29.68,South,174,7.6,12.8,2,0.00,,---,0.00,VWS V14.01,2013-04-06 22:25:00,
2013-04-06 15:31:00,79.7,-16.0,29.68,SE,145,13.2,14.5,2,0.00,,---,0.00,VWS V14.01,2013-04-06 22:31:00,
2013-04-06 15:36:00,77.7,-9.2,29.68,SE,126,8.3,8.3,3,0.00,,---,0.00,VWS V14.01,2013-04-06 22:36:00,
2013-04-06 15:41:00,78.4,-8.7,29.68,SE,136,0.0,0.0,3,0.00,,---,0.00,VWS V14.01,2013-04-06 22:41:00,
2013-04-06 15:46:00,78.1,-9.0,29.68,SE,130,0.0,0.0,3,0.00,,---,0.00,VWS V14.01,2013-04-06 22:46:00,
2013-04-06 15:52:00,77.2,-9.6,29.68,SSE,153,0.0,0.0,3,0.00,,---,0.00,VWS V14.01,2013-04-06 22:52:00,
2013-04-06 15:57:00,75.9,-10.4,29.68,ESE,121,0.0,0.0,3,0.00,,---,0.00,VWS V14.01,2013-04-06 22:57:00,
2013-04-06 16:02:00,76.1,-10.3,29.68,South,171,0.0,0.0,3,0.00,,---,0.00,VWS V14.01,2013-04-06 23:02:00,
2013-04-06 16:08:00,76.1,-10.3,29.68,SE,145,0.0,0.0,3,0.00,,---,0.00,VWS V14.01,2013-04-06 23:08:00,
2013-04-06 16:13:00,75.9,-10.4,29.68,ESE,118,0.0,0.0,3,0.00,,---,0.00,VWS V14.01,2013-04-06 23:13:00,
2013-04-06 16:18:00,75.6,-10.6,29.68,SE,129,0.0,0.0,3,0.00,,---,0.00,VWS V14.01,2013-04-06 23:18:00,
2013-04-06 16:23:00,75.4,-10.8,29.68,SSE,147,0.0,0.0,3,0.00,,---,0.00,VWS V14.01,2013-04-06 23:23:00,
2013-04-06 16:28:00,74.8,-11.1,29.68,SSW,195,0.0,0.0,3,0.00,,---,0.00,VWS V14.01,2013-04-06 23:28:00,
2013-04-06 16:33:00,74.3,-11.5,29.68,South,174,0.0,0.0,3,0.00,,---,0.00,VWS V14.01,2013-04-06 23:33:00,
2013-04-06 16:39:00,74.3,-11.5,29.68,WSW,249,0.0,0.0,3,0.00,,---,0.00,VWS V14.01,2013-04-06 23:39:00,
2013-04-06 16:44:00,74.5,-11.4,29.68,West,273,0.0,0.0,3,0.00,,---,0.00,VWS V14.01,2013-04-06 23:44:00,
2013-04-06 16:49:00,74.3,-11.5,29.68,ESE,112,0.0,0.0,3,0.00,,---,0.00,VWS V14.01,2013-04-06 23:49:00,
2013-04-06 16:55:00,74.3,-11.5,29.68,SSW,196,0.0,0.0,3,0.00,,---,0.00,VWS V14.01,2013-04-06 23:55:00,
2013-04-06 17:00:00,74.1,-11.6,29.68,SSE,161,0.0,0.0,3,0.00,,---,0.00,VWS V14.01,2013-04-07 00:00:00,
2013-04-06 17:05:00,73.8,-11.9,29.68,South,174,0.0,0.0,3,0.00,,---,0.00,VWS V14.01,2013-04-07 00:05:00,
2013-04-06 17:11:00,73.8,-11.9,29.68,South,169,0.0,0.0,3,0.00,,---,0.00,VWS V14.01,2013-04-07 00:11:00,
2013-04-06 17:16:00,73.8,-11.9,29.65,SSW,193,0.0,0.0,3,0.00,,---,0.00,VWS V14.01,2013-04-07 00:16:00,
2013-04-06 17:22:00,73.9,-11.7,29.65,SSE,160,0.0,0.0,3,0.00,,---,0.00,VWS V14.01,2013-04-07 00:22:00,
2013-04-06 17:27:00,74.1,-11.6,29.65,SSE,156,0.0,0.0,3,0.00,,---,0.00,VWS V14.01,2013-04-07 00:27:00,
2013-04-06 17:33:00,74.1,-11.6,29.68,SE,142,0.0,0.0,3,0.00,,---,0.00,VWS V14.01,2013-04-07 00:33:00,
2013-04-06 17:38:00,73.8,-11.9,29.68,South,180,0.0,0.0,3,0.00,,---,0.00,VWS V14.01,2013-04-07 00:38:00,
2013-04-06 17:43:00,73.8,-11.9,29.68,SSE,152,0.0,0.0,3,0.00,,---,0.00,VWS V14.01,2013-04-07 00:43:00,
2013-04-06 17:48:00,73.6,-12.0,29.68,South,169,0.0,0.0,3,0.00,,---,0.00,VWS V14.01,2013-04-07 00:48:00,
2013-04-06 17:53:00,73.0,-6.5,29.68,South,190,8.1,9.6,4,0.00,,---,0.00,VWS V14.01,2013-04-07 00:53:00,
2013-04-06 17:59:00,72.9,-6.6,29.65,SE,138,7.2,12.8,4,0.00,,---,0.00,VWS V14.01,2013-04-07 00:59:00,
2013-04-06 18:04:00,73.0,-6.5,29.65,South,190,8.3,8.3,4,0.00,,---,0.00,VWS V14.01,2013-04-07 01:04:00,
2013-04-06 18:09:00,73.2,-6.4,29.68,SE,140,5.4,5.4,4,0.00,,---,0.00,VWS V14.01,2013-04-07 01:09:00,
2013-04-06 18:14:00,73.4,-12.1,29.68,SSE,156,0.0,0.0,3,0.00,,---,0.00,VWS V14.01,2013-04-07 01:14:00,
2013-04-06 18:19:00,73.6,-12.0,29.68,SSW,199,0.0,0.0,3,0.00,,---,0.00,VWS V14.01,2013-04-07 01:19:00,
2013-04-06 18:24:00,73.2,-6.4,29.68,SW,227,0.0,0.0,4,0.00,,---,0.00,VWS V14.01,2013-04-07 01:24:00,
2013-04-06 18:30:00,73.0,-6.5,29.68,South,183,0.0,0.0,4,0.00,,---,0.00,VWS V14.01,2013-04-07 01:30:00,
2013-04-06 18:35:00,72.5,-6.9,29.68,SW,214,0.0,0.0,4,0.00,,---,0.00,VWS V14.01,2013-04-07 01:35:00,
2013-04-06 18:40:00,72.5,-6.9,29.68,South,178,0.0,0.0,4,0.00,,---,0.00,VWS V14.01,2013-04-07 01:40:00,
2013-04-06 18:45:00,72.0,-7.3,29.68,SSW,192,0.0,0.0,4,0.00,,---,0.00,VWS V14.01,2013-04-07 01:45:00,
2013-04-06 18:51:00,71.4,-7.6,29.68,SSE,167,0.0,0.0,4,0.00,,---,0.00,VWS V14.01,2013-04-07 01:51:00,
2013-04-06 18:56:00,71.2,-7.8,29.68,SSE,162,0.0,0.0,4,0.00,,---,0.00,VWS V14.01,2013-04-07 01:56:00,
2013-04-06 19:01:00,70.5,-8.3,29.68,SW,214,0.0,0.0,4,0.00,,---,0.00,VWS V14.01,2013-04-07 02:01:00,
2013-04-06 19:06:00,70.3,-8.4,29.68,SSW,193,0.0,0.0,4,0.00,,---,0.00,VWS V14.01,2013-04-07 02:06:00,
2013-04-06 19:12:00,70.0,-8.6,29.68,West,260,0.0,2.7,4,0.00,,---,0.00,VWS V14.01,2013-04-07 02:12:00,
2013-04-06 19:17:00,69.8,-8.8,29.68,SSE,166,0.0,0.0,4,0.00,,---,0.00,VWS V14.01,2013-04-07 02:17:00,
2013-04-06 19:22:00,69.3,-4.6,29.68,SSE,160,0.0,0.0,5,0.00,,---,0.00,VWS V14.01,2013-04-07 02:22:00,
2013-04-06 19:28:00,68.9,-4.8,29.68,SW,217,0.0,0.0,5,0.00,,---,0.00,VWS V14.01,2013-04-07 02:28:00,
2013-04-06 19:33:00,68.7,-4.9,29.68,SSW,198,0.0,0.0,5,0.00,,---,0.00,VWS V14.01,2013-04-07 02:33:00,
2013-04-06 19:38:00,68.7,-4.9,29.68,SW,221,3.1,3.1,5,0.00,,---,0.00,VWS V14.01,2013-04-07 02:38:00,
2013-04-06 19:43:00,68.7,-4.9,29.68,SSW,204,0.0,0.0,5,0.00,,---,0.00,VWS V14.01,2013-04-07 02:43:00,
2013-04-06 19:49:00,68.7,-4.9,29.68,SW,235,0.0,0.0,5,0.00,,---,0.00,VWS V14.01,2013-04-07 02:49:00,
2013-04-06 19:54:00,68.9,-4.8,29.68,SW,225,3.6,9.6,5,0.00,,---,0.00,VWS V14.01,2013-04-07 02:54:00,
2013-04-06 19:59:00,69.4,-4.4,29.68,WSW,249,4.0,4.0,5,0.00,,---,0.00,VWS V14.01,2013-04-07 02:59:00,
2013-04-06 20:05:00,69.3,-4.6,29.68,WSW,256,4.0,4.0,5,0.00,,---,0.00,VWS V14.01,2013-04-07 03:05:00,
2013-04-06 20:10:00,68.9,-4.8,29.68,NE,34,4.9,4.9,5,0.00,,---,0.00,VWS V14.01,2013-04-07 03:10:00,
2013-04-06 20:15:00,69.3,-4.6,29.71,WSW,237,0.0,0.0,5,0.00,,---,0.00,VWS V14.01,2013-04-07 03:15:00,
2013-04-06 20:20:00,69.6,-4.3,29.71,SSE,167,0.0,0.0,5,0.00,,---,0.00,VWS V14.01,2013-04-07 03:20:00,
2013-04-06 20:25:00,69.4,-4.4,29.71,WSW,247,2.7,2.7,5,0.00,,---,0.00,VWS V14.01,2013-04-07 03:25:00,
2013-04-06 20:31:00,69.4,-4.4,29.71,West,261,0.0,0.0,5,0.00,,---,0.00,VWS V14.01,2013-04-07 03:31:00,
2013-04-06 20:36:00,68.0,-5.4,29.71,SW,222,0.0,0.0,5,0.00,,---,0.00,VWS V14.01,2013-04-07 03:36:00,
2013-04-06 20:41:00,68.0,-5.4,29.71,SW,226,0.0,0.0,5,0.00,,---,0.00,VWS V14.01,2013-04-07 03:41:00,
2013-04-06 20:46:00,67.6,-5.7,29.71,West,277,0.0,0.0,5,0.00,,---,0.00,VWS V14.01,2013-04-07 03:46:00,
2013-04-06 20:52:00,67.3,-6.0,29.71,SW,232,4.0,4.0,5,0.00,,---,0.00,VWS V14.01,2013-04-07 03:52:00,
2013-04-06 20:57:00,67.8,-5.6,29.71,SSW,192,0.0,0.0,5,0.00,,---,0.00,VWS V14.01,2013-04-07 03:57:00,
2013-04-06 21:00:00,68.2,-5.3,29.71,SSW,192,0.0,0.0,5,0.00,,---,0.00,VWS V14.01,2013-04-07 04:00:00,
2013-04-06 21:01:00,68.2,-5.3,29.71,South,190,0.0,0.0,5,0.00,,---,0.00,VWS V14.01,2013-04-07 04:01:00,
2013-04-06 21:02:00,68.2,-5.3,29.71,NW,314,0.0,0.0,5,0.00,,---,0.00,VWS V14.01,2013-04-07 04:02:00,
2013-04-06 21:07:00,67.1,-6.1,29.71,WNW,301,5.4,5.4,5,0.00,,---,0.00,VWS V14.01,2013-04-07 04:07:00,
2013-04-06 21:12:00,64.8,-7.8,29.71,WNW,286,4.0,4.0,5,0.00,,---,0.00,VWS V14.01,2013-04-07 04:12:00,
2013-04-06 21:18:00,63.7,-4.8,29.71,West,266,5.8,5.8,6,0.00,,---,0.00,VWS V14.01,2013-04-07 04:18:00,
2013-04-06 21:23:00,62.6,-5.6,29.71,West,274,0.0,0.0,6,0.00,,---,0.00,VWS V14.01,2013-04-07 04:23:00,
2013-04-06 21:28:00,62.2,-5.8,29.71,West,264,0.0,0.0,6,0.00,,---,0.00,VWS V14.01,2013-04-07 04:28:00,
2013-04-06 21:34:00,62.2,-5.8,29.71,West,268,0.0,0.0,6,0.00,,---,0.00,VWS V14.01,2013-04-07 04:34:00,
2013-04-06 21:39:00,61.9,-6.1,29.74,WSW,255,0.0,0.0,6,0.00,,---,0.00,VWS V14.01,2013-04-07 04:39:00,
2013-04-06 21:44:00,61.9,-6.1,29.74,WSW,256,0.0,0.0,6,0.00,,---,0.00,VWS V14.01,2013-04-07 04:44:00,
2013-04-06 21:50:00,61.3,-6.5,29.74,West,259,0.0,0.0,6,0.00,,---,0.00,VWS V14.01,2013-04-07 04:50:00,
2013-04-06 21:55:00,61.0,-6.7,29.74,West,259,0.0,0.0,6,0.00,,---,0.00,VWS V14.01,2013-04-07 04:55:00,
2013-04-06 22:00:00,61.0,-6.7,29.74,West,259,0.0,0.0,6,0.00,,---,0.00,VWS V14.01,2013-04-07 05:00:00,
2013-04-06 22:05:00,60.4,-4.0,29.74,WSW,255,0.0,0.0,7,0.00,,---,0.00,VWS V14.01,2013-04-07 05:05:00,
2013-04-06 22:10:00,60.1,-4.2,29.74,WSW,252,0.0,0.0,7,0.00,,---,0.00,VWS V14.01,2013-04-07 05:10:00,
2013-04-06 22:16:00,60.1,-4.2,29.74,WSW,244,0.0,0.0,7,0.00,,---,0.00,VWS V14.01,2013-04-07 05:16:00,
2013-04-06 22:21:00,60.1,-4.2,29.74,WSW,244,0.0,0.0,7,0.00,,---,0.00,VWS V14.01,2013-04-07 05:21:00,
2013-04-06 22:27:00,60.1,-4.2,29.74,WSW,241,0.0,0.0,7,0.00,,---,0.00,VWS V14.01,2013-04-07 05:27:00,
2013-04-06 22:32:00,59.9,-4.3,29.74,WSW,246,0.0,0.0,7,0.00,,---,0.00,VWS V14.01,2013-04-07 05:32:00,
2013-04-06 22:37:00,59.7,-4.5,29.74,WSW,246,0.0,0.0,7,0.00,,---,0.00,VWS V14.01,2013-04-07 05:37:00,
2013-04-06 22:42:00,58.8,-5.2,29.74,WSW,246,0.0,0.0,7,0.00,,---,0.00,VWS V14.01,2013-04-07 05:42:00,
2013-04-06 22:47:00,59.2,-4.9,29.74,WSW,246,0.0,0.0,7,0.00,,---,0.00,VWS V14.01,2013-04-07 05:47:00,
2013-04-06 22:53:00,59.5,-4.6,29.74,WSW,237,0.0,0.0,7,0.00,,---,0.00,VWS V14.01,2013-04-07 05:53:00,
2013-04-06 22:58:00,60.1,-4.2,29.74,WSW,237,0.0,0.0,7,0.00,,---,0.00,VWS V14.01,2013-04-07 05:58:00,
2013-04-06 23:04:00,60.1,-4.2,29.74,WSW,237,0.0,0.0,7,0.00,,---,0.00,VWS V14.01,2013-04-07 06:04:00,
2013-04-06 23:09:00,59.4,-4.8,29.74,WSW,237,0.0,0.0,7,0.00,,---,0.00,VWS V14.01,2013-04-07 06:09:00,
2013-04-06 23:14:00,59.4,-4.8,29.74,WSW,237,0.0,0.0,7,0.00,,---,0.00,VWS V14.01,2013-04-07 06:14:00,
2013-04-06 23:19:00,59.5,-4.6,29.74,SW,230,0.0,0.0,7,0.00,,---,0.00,VWS V14.01,2013-04-07 06:19:00,
2013-04-06 23:25:00,59.7,-4.5,29.74,SW,230,0.0,0.0,7,0.00,,---,0.00,VWS V14.01,2013-04-07 06:25:00,
2013-04-06 23:30:00,59.0,-5.0,29.74,SW,230,0.0,0.0,7,0.00,,---,0.00,VWS V14.01,2013-04-07 06:30:00,
2013-04-06 23:35:00,58.5,-5.4,29.74,SW,221,0.0,0.0,7,0.00,,---,0.00,VWS V14.01,2013-04-07 06:35:00,
2013-04-06 23:40:00,58.3,-5.6,29.74,SW,219,0.0,0.0,7,0.00,,---,0.00,VWS V14.01,2013-04-07 06:40:00,
2013-04-06 23:45:00,58.3,-5.6,29.74,SW,219,0.0,0.0,7,0.00,,---,0.00,VWS V14.01,2013-04-07 06:45:00,
2013-04-06 23:50:00,58.3,-5.6,29.74,SW,219,0.0,0.0,7,0.00,,---,0.00,VWS V14.01,2013-04-07 06:50:00,
2013-04-06 23:55:00,58.5,-5.4,29.74,SW,219,0.0,0.0,7,0.00,,---,0.00,VWS V14.01,2013-04-07 06:55:00,